createdAt,value
2022-10-22T00:01:12.078Z,71.11
2022-10-22T00:03:41.487Z,73.54
2022-10-22T00:06:09.661Z,74.25
2022-10-22T00:08:37.681Z,72.76
2022-10-22T00:11:11.373Z,72.30
2022-10-22T00:13:39.935Z,72.24
2022-10-22T00:16:09.249Z,72.53
2022-10-22T00:18:37.905Z,72.03
2022-10-22T00:21:06.997Z,72.08
2022-10-22T00:23:35.587Z,71.89
2022-10-22T00:26:03.554Z,71.82
2022-10-22T00:28:31.626Z,71.87
2022-10-22T00:31:00.849Z,72.13
2022-10-22T00:33:30.091Z,72.01
2022-10-22T00:35:58.300Z,71.96
2022-10-22T00:38:26.676Z,72.13
2022-10-22T00:40:54.674Z,72.01
2022-10-22T00:43:22.822Z,72.23
2022-10-22T00:45:50.792Z,72.41
2022-10-22T00:48:22.443Z,72.62
2022-10-22T00:50:59.679Z,72.43
2022-10-22T00:53:35.183Z,72.43
2022-10-22T00:56:03.967Z,72.38
2022-10-22T00:58:37.411Z,72.43
2022-10-22T01:01:09.387Z,72.25
2022-10-22T01:03:37.454Z,72.02
2022-10-22T01:06:06.191Z,72.13
2022-10-22T01:08:49.648Z,72.19
2022-10-22T01:11:28.005Z,72.28
2022-10-22T01:14:13.824Z,72.25
2022-10-22T01:17:00.729Z,72.25
2022-10-22T01:19:53.591Z,72.35
2022-10-22T01:22:40.430Z,72.22
2022-10-22T01:25:14.916Z,73.13
2022-10-22T01:27:48.936Z,72.93
2022-10-22T01:30:18.543Z,72.78
2022-10-22T01:32:50.506Z,72.81
2022-10-22T01:35:24.658Z,72.61
2022-10-22T01:37:57.914Z,72.68
2022-10-22T01:40:27.488Z,72.54
2022-10-22T01:43:07.698Z,72.79
2022-10-22T01:45:42.808Z,72.75
2022-10-22T01:48:26.064Z,72.80
2022-10-22T01:51:03.187Z,72.89
2022-10-22T01:53:51.476Z,72.81
2022-10-22T01:56:41.267Z,72.65
2022-10-22T01:59:38.608Z,72.45
2022-10-22T02:02:25.942Z,72.75
2022-10-22T02:05:01.278Z,72.93
2022-10-22T02:07:34.843Z,73.01
2022-10-22T02:10:04.560Z,73.05
2022-10-22T02:12:34.249Z,73.04
2022-10-22T02:15:04.659Z,73.13
2022-10-22T02:17:35.044Z,73.16
2022-10-22T02:20:11.015Z,73.19
2022-10-22T02:22:40.307Z,73.33
2022-10-22T02:25:09.603Z,73.20
2022-10-22T02:27:51.927Z,73.25
2022-10-22T02:30:22.661Z,73.21
2022-10-22T02:32:57.833Z,73.42
2022-10-22T02:35:27.912Z,73.40
2022-10-22T02:37:58.411Z,73.35
2022-10-22T02:40:28.659Z,73.32
2022-10-22T02:42:56.836Z,73.42
2022-10-22T02:45:25.215Z,73.56
2022-10-22T02:47:53.277Z,73.65
2022-10-22T02:50:21.247Z,73.52
2022-10-22T02:52:49.178Z,73.49
2022-10-22T02:55:17.298Z,73.55
2022-10-22T02:57:45.259Z,73.70
2022-10-22T03:00:13.799Z,73.88
2022-10-22T03:02:41.811Z,73.70
2022-10-22T03:05:10.508Z,73.86
2022-10-22T03:07:39.488Z,73.86
2022-10-22T03:10:08.074Z,73.91
2022-10-22T03:12:36.256Z,73.85
2022-10-22T03:15:05.003Z,73.85
2022-10-22T03:17:32.911Z,73.96
2022-10-22T03:20:00.882Z,73.97
2022-10-22T03:22:32.946Z,73.83
2022-10-22T03:25:08.043Z,73.98
2022-10-22T03:27:39.403Z,73.89
2022-10-22T03:30:08.327Z,73.94
2022-10-22T03:32:36.193Z,73.86
2022-10-22T03:35:05.700Z,73.97
2022-10-22T03:37:34.731Z,73.90
2022-10-22T03:40:05.943Z,74.08
2022-10-22T03:42:34.689Z,74.10
2022-10-22T03:45:02.699Z,73.91
2022-10-22T03:47:30.762Z,74.13
2022-10-22T03:49:58.833Z,74.82
2022-10-22T03:52:26.905Z,74.19
2022-10-22T03:54:55.098Z,74.20
2022-10-22T03:57:23.058Z,74.23
2022-10-22T03:59:51.493Z,74.34
2022-10-22T04:02:19.507Z,74.33
2022-10-22T04:04:47.737Z,74.48
2022-10-22T04:07:15.607Z,74.66
2022-10-22T04:09:43.624Z,74.58
2022-10-22T04:12:11.587Z,75.74
2022-10-22T04:14:39.589Z,75.13
2022-10-22T04:17:07.519Z,74.84
2022-10-22T04:19:36.111Z,75.03
2022-10-22T04:22:04.492Z,74.90
2022-10-22T04:24:32.681Z,74.97
2022-10-22T04:27:00.841Z,75.08
2022-10-22T04:29:28.804Z,75.07
2022-10-22T04:31:56.775Z,75.24
2022-10-22T04:34:28.367Z,75.23
2022-10-22T04:36:56.855Z,75.36
2022-10-22T04:39:25.089Z,75.63
2022-10-22T04:41:52.994Z,77.26
2022-10-22T04:44:20.951Z,76.40
2022-10-22T04:46:49.304Z,75.93
2022-10-22T04:49:17.368Z,75.81
2022-10-22T04:51:45.290Z,75.74
2022-10-22T04:54:14.836Z,75.68
2022-10-22T04:56:42.960Z,75.78
2022-10-22T04:59:12.883Z,76.00
2022-10-22T05:01:44.182Z,76.20
2022-10-22T05:04:14.530Z,75.84
2022-10-22T05:06:43.775Z,75.75
2022-10-22T05:09:15.682Z,75.55
2022-10-22T05:11:46.412Z,75.54
2022-10-22T05:14:17.408Z,75.52
2022-10-22T05:16:48.241Z,75.68
2022-10-22T05:19:23.922Z,76.36
2022-10-22T05:21:54.089Z,76.17
2022-10-22T05:24:22.734Z,76.69
2022-10-22T05:26:52.093Z,76.17
2022-10-22T05:29:21.028Z,75.83
2022-10-22T05:31:48.869Z,75.91
2022-10-22T05:34:17.692Z,75.96
2022-10-22T05:36:45.858Z,76.22
2022-10-22T05:39:13.835Z,76.18
2022-10-22T05:41:43.025Z,76.22
2022-10-22T05:44:12.877Z,76.45
2022-10-22T05:46:43.463Z,76.20
2022-10-22T05:49:16.467Z,76.03
2022-10-22T05:51:44.796Z,76.07
2022-10-22T05:54:17.617Z,76.09
2022-10-22T05:56:46.835Z,75.98
2022-10-22T05:59:14.815Z,75.98
2022-10-22T06:01:42.976Z,75.83
2022-10-22T06:04:12.586Z,76.01
2022-10-22T06:06:50.131Z,75.72
2022-10-22T06:09:22.451Z,75.61
2022-10-22T06:11:51.092Z,75.35
2022-10-22T06:14:20.539Z,75.38
2022-10-22T06:16:49.847Z,75.50
2022-10-22T06:19:19.040Z,75.05
2022-10-22T06:21:48.138Z,74.38
2022-10-22T06:24:16.725Z,73.60
2022-10-22T06:26:45.208Z,73.01
2022-10-22T06:29:13.142Z,72.43
2022-10-22T06:31:41.241Z,71.06
2022-10-22T06:34:14.166Z,69.83
2022-10-22T06:36:44.562Z,68.62
2022-10-22T06:39:14.504Z,67.16
2022-10-22T06:41:42.745Z,65.11
2022-10-22T06:44:15.305Z,63.65
2022-10-22T06:46:43.803Z,62.70
2022-10-22T06:49:17.391Z,60.27
2022-10-22T06:51:46.263Z,59.37
2022-10-22T06:54:14.880Z,57.95
2022-10-22T06:56:42.952Z,57.28
2022-10-22T06:59:11.032Z,57.54
2022-10-22T07:01:39.959Z,54.55
2022-10-22T07:04:10.354Z,50.96
2022-10-22T07:06:38.311Z,51.36
2022-10-22T07:09:06.786Z,48.37
2022-10-22T07:11:42.331Z,44.98
2022-10-22T07:14:11.566Z,43.80
2022-10-22T07:16:42.383Z,41.69
2022-10-22T07:19:10.556Z,39.79
2022-10-22T07:21:39.032Z,37.07
2022-10-22T07:24:07.726Z,34.73
2022-10-22T07:26:37.132Z,32.72
2022-10-22T07:29:06.019Z,29.98
2022-10-22T07:31:33.859Z,27.68
2022-10-22T07:34:02.175Z,27.64
2022-10-22T07:36:30.236Z,25.14
2022-10-22T07:39:00.996Z,24.57
2022-10-22T07:41:31.404Z,23.17
2022-10-22T07:44:00.205Z,21.82
2022-10-22T07:46:28.462Z,20.93
2022-10-22T07:48:56.571Z,20.07
2022-10-22T07:51:24.605Z,19.04
2022-10-22T07:53:52.826Z,18.48
2022-10-22T07:56:21.262Z,17.26
2022-10-22T07:58:49.388Z,17.56
2022-10-22T08:01:17.572Z,17.48
2022-10-22T08:03:46.494Z,17.09
2022-10-22T08:06:15.081Z,16.11
2022-10-22T08:08:45.940Z,15.63
2022-10-22T08:11:14.228Z,15.49
2022-10-22T08:13:45.419Z,13.99
2022-10-22T08:16:15.069Z,14.94
2022-10-22T08:18:43.227Z,14.99
2022-10-22T08:21:12.951Z,14.41
2022-10-22T08:23:41.211Z,14.85
2022-10-22T08:26:10.508Z,14.60
2022-10-22T08:28:38.765Z,13.79
2022-10-22T08:31:08.182Z,13.84
2022-10-22T08:33:36.891Z,13.32
2022-10-22T08:36:05.976Z,13.11
2022-10-22T08:38:35.408Z,12.93
2022-10-22T08:41:14.102Z,12.87
2022-10-22T08:44:06.340Z,13.32
2022-10-22T08:47:03.007Z,14.48
2022-10-22T08:49:39.734Z,15.63
2022-10-22T08:52:15.610Z,16.40
2022-10-22T08:54:53.828Z,18.18
2022-10-22T08:57:24.698Z,19.92
2022-10-22T09:00:20.002Z,20.94
2022-10-22T09:03:19.084Z,21.89
2022-10-22T09:06:05.573Z,23.02
2022-10-22T09:08:35.138Z,23.62
2022-10-22T09:11:34.281Z,23.40
2022-10-22T09:14:03.954Z,22.98
2022-10-22T09:17:03.287Z,22.69
2022-10-22T09:19:41.607Z,23.11
2022-10-22T09:22:37.530Z,23.42
2022-10-22T09:25:17.527Z,24.14
2022-10-22T09:27:46.067Z,25.01
2022-10-22T09:30:16.698Z,25.63
2022-10-22T09:32:44.877Z,26.06
2022-10-22T09:35:15.332Z,26.63
2022-10-22T09:37:52.479Z,27.11
2022-10-22T09:40:21.689Z,27.32
2022-10-22T09:42:49.861Z,27.62
2022-10-22T09:45:25.715Z,27.73
2022-10-22T09:48:11.747Z,27.37
2022-10-22T09:50:44.484Z,27.58
2022-10-22T09:53:15.327Z,27.48
2022-10-22T09:55:44.130Z,27.74
2022-10-22T09:58:14.241Z,27.43
2022-10-22T10:00:46.254Z,27.72
2022-10-22T10:03:18.746Z,28.01
2022-10-22T10:06:00.193Z,27.95
2022-10-22T10:08:31.240Z,27.97
2022-10-22T10:11:06.172Z,27.95
2022-10-22T10:13:34.824Z,28.59
2022-10-22T10:16:09.859Z,29.08
2022-10-22T10:19:07.121Z,29.23
2022-10-22T10:21:41.143Z,29.26
2022-10-22T10:24:31.208Z,29.96
2022-10-22T10:27:19.469Z,30.52
2022-10-22T10:29:57.974Z,31.13
2022-10-22T10:32:35.363Z,30.94
2022-10-22T10:35:16.127Z,30.65
2022-10-22T10:37:47.113Z,30.99
2022-10-22T10:40:28.650Z,31.46
2022-10-22T10:43:08.973Z,31.50
2022-10-22T10:45:56.115Z,31.74
2022-10-22T10:48:27.173Z,31.83
2022-10-22T10:50:55.046Z,31.78
2022-10-22T10:53:49.128Z,31.69
2022-10-22T10:56:23.174Z,32.78
2022-10-22T10:58:54.487Z,32.89
2022-10-22T11:01:30.351Z,32.19
2022-10-22T11:04:14.285Z,31.89
2022-10-22T11:06:43.279Z,33.02
2022-10-22T11:09:19.465Z,33.46
2022-10-22T11:11:47.307Z,32.91
2022-10-22T11:14:24.242Z,33.06
2022-10-22T11:16:59.231Z,32.98
2022-10-22T11:19:49.776Z,32.65
2022-10-22T11:22:26.808Z,32.16
2022-10-22T11:25:02.179Z,31.48
2022-10-22T11:27:33.077Z,30.90
2022-10-22T11:30:06.071Z,29.96
2022-10-22T11:32:34.173Z,28.92
2022-10-22T11:35:06.931Z,27.73
2022-10-22T11:37:36.231Z,26.51
2022-10-22T11:40:21.099Z,26.14
2022-10-22T11:43:18.553Z,25.64
2022-10-22T11:45:50.522Z,24.83
2022-10-22T11:48:19.099Z,24.77
2022-10-22T11:50:51.063Z,25.05
2022-10-22T11:53:21.114Z,24.47
2022-10-22T11:56:21.299Z,24.29
2022-10-22T11:58:53.749Z,22.96
2022-10-22T12:01:29.988Z,21.92
2022-10-22T12:03:57.802Z,21.99
2022-10-22T12:06:26.388Z,22.53
2022-10-22T12:08:57.678Z,23.04
2022-10-22T12:11:29.658Z,23.63
2022-10-22T12:14:13.752Z,24.16
2022-10-22T12:17:01.722Z,25.19
2022-10-22T12:19:30.993Z,26.27
2022-10-22T12:22:11.605Z,26.86
2022-10-22T12:24:41.880Z,27.55
2022-10-22T12:27:23.422Z,28.50
2022-10-22T12:29:56.460Z,28.77
2022-10-22T12:32:32.918Z,29.34
2022-10-22T12:35:05.137Z,30.07
2022-10-22T12:37:35.480Z,31.41
2022-10-22T12:40:16.334Z,31.72
2022-10-22T12:43:05.903Z,32.36
2022-10-22T12:45:35.220Z,32.34
2022-10-22T12:48:05.351Z,32.94
2022-10-22T12:50:40.280Z,33.93
2022-10-22T12:53:18.902Z,34.07
2022-10-22T12:55:49.685Z,34.37
2022-10-22T12:58:21.359Z,37.56
2022-10-22T13:00:53.969Z,37.58
2022-10-22T13:03:28.076Z,37.96
2022-10-22T13:05:55.864Z,36.76
2022-10-22T13:08:27.213Z,37.08
2022-10-22T13:10:55.514Z,38.65
2022-10-22T13:13:43.682Z,40.34
2022-10-22T13:16:14.958Z,40.11
2022-10-22T13:18:44.159Z,40.84
2022-10-22T13:21:41.311Z,42.45
2022-10-22T13:24:23.523Z,42.90
2022-10-22T13:26:53.842Z,43.33
2022-10-22T13:29:23.246Z,43.38
2022-10-22T13:31:52.657Z,44.24
2022-10-22T13:34:22.057Z,44.71
2022-10-22T13:36:50.227Z,44.96
2022-10-22T13:39:19.132Z,45.64
2022-10-22T13:41:47.223Z,46.63
2022-10-22T13:44:15.370Z,46.77
2022-10-22T13:46:43.662Z,45.95
2022-10-22T13:49:23.479Z,45.88
2022-10-22T13:51:52.898Z,45.38
2022-10-22T13:54:22.827Z,46.58
2022-10-22T13:56:50.709Z,47.05
2022-10-22T13:59:21.314Z,47.60
2022-10-22T14:01:52.400Z,47.88
2022-10-22T14:04:20.219Z,48.61
2022-10-22T14:06:48.161Z,49.96
2022-10-22T14:09:16.325Z,49.35
2022-10-22T14:11:44.351Z,49.35
2022-10-22T14:14:14.425Z,47.74
2022-10-22T14:16:42.656Z,48.43
2022-10-22T14:19:14.955Z,49.92
2022-10-22T14:21:42.972Z,49.49
2022-10-22T14:24:13.134Z,49.81
2022-10-22T14:26:41.875Z,50.36
2022-10-22T14:29:11.069Z,50.48
2022-10-22T14:34:10.181Z,51.35
2022-10-22T14:36:37.945Z,51.74
2022-10-22T14:39:05.931Z,51.94
2022-10-22T14:41:33.836Z,52.11
2022-10-22T14:44:01.888Z,52.59
2022-10-22T14:46:30.028Z,52.83
2022-10-22T14:48:57.905Z,53.21
2022-10-22T14:51:26.281Z,53.82
2022-10-22T14:53:54.149Z,54.00
2022-10-22T14:56:22.418Z,54.18
2022-10-22T14:58:50.391Z,55.25
2022-10-22T15:01:18.161Z,55.43
2022-10-22T15:03:46.232Z,55.13
2022-10-22T15:06:14.138Z,54.27
2022-10-22T15:08:42.113Z,53.93
2022-10-22T15:11:11.780Z,54.80
2022-10-22T15:13:41.584Z,55.37
2022-10-22T15:16:10.684Z,55.62
2022-10-22T15:18:38.958Z,55.88
2022-10-22T15:21:08.165Z,58.54
2022-10-22T15:23:36.759Z,57.91
2022-10-22T15:26:07.461Z,57.31
2022-10-22T15:28:36.270Z,57.14
2022-10-22T15:31:04.880Z,57.80
2022-10-22T15:33:33.331Z,59.03
2022-10-22T15:36:10.624Z,59.58
2022-10-22T15:38:38.594Z,58.49
2022-10-22T15:41:10.071Z,58.84
2022-10-22T15:43:37.967Z,58.99
2022-10-22T15:46:16.174Z,59.30
2022-10-22T15:48:44.110Z,59.98
2022-10-22T15:51:13.148Z,61.87
2022-10-22T15:53:41.567Z,60.24
2022-10-22T15:56:09.945Z,59.60
2022-10-22T15:58:37.907Z,59.54
2022-10-22T16:01:10.364Z,60.03
2022-10-22T16:03:38.255Z,59.75
2022-10-22T16:06:07.202Z,61.21
2022-10-22T16:08:35.490Z,62.21
2022-10-22T16:11:03.904Z,61.38
2022-10-22T16:13:31.874Z,61.25
2022-10-22T16:16:04.659Z,60.72
2022-10-22T16:18:32.628Z,60.55
2022-10-22T16:21:00.388Z,62.04
2022-10-22T16:23:28.262Z,61.49
2022-10-22T16:25:56.630Z,61.14
2022-10-22T16:28:24.543Z,64.97
2022-10-22T16:30:52.467Z,63.63
2022-10-22T16:33:20.240Z,62.30
2022-10-22T16:35:48.303Z,63.72
2022-10-22T16:38:16.484Z,63.00
2022-10-22T16:40:44.456Z,62.49
2022-10-22T16:43:12.362Z,62.95
2022-10-22T16:45:46.849Z,62.75
2022-10-22T16:48:15.019Z,62.70
2022-10-22T16:50:43.674Z,62.94
2022-10-22T16:53:11.781Z,65.48
2022-10-22T16:55:39.637Z,64.45
2022-10-22T16:58:07.392Z,62.95
2022-10-22T17:00:35.434Z,64.67
2022-10-22T17:03:03.750Z,64.01
2022-10-22T17:05:31.933Z,63.93
2022-10-22T17:08:00.005Z,63.83
2022-10-22T17:10:28.078Z,63.82
2022-10-22T17:12:55.892Z,63.48
2022-10-22T17:15:23.709Z,63.56
2022-10-22T17:17:53.932Z,64.05
2022-10-22T17:20:22.099Z,65.36
2022-10-22T17:22:49.970Z,64.11
2022-10-22T17:25:25.000Z,63.64
2022-10-22T17:27:55.878Z,63.73
2022-10-22T17:30:27.268Z,64.13
2022-10-22T17:32:55.469Z,65.21
2022-10-22T17:35:23.576Z,66.12
2022-10-22T17:37:51.504Z,65.78
2022-10-22T17:40:19.379Z,65.25
2022-10-22T17:42:49.388Z,64.06
2022-10-22T17:45:17.403Z,63.98
2022-10-22T17:47:45.335Z,63.83
2022-10-22T17:50:13.739Z,64.00
2022-10-22T17:52:43.304Z,65.94
2022-10-22T17:55:12.929Z,65.54
2022-10-22T17:57:40.804Z,64.37
2022-10-22T18:00:09.141Z,63.60
2022-10-22T18:02:37.977Z,63.95
2022-10-22T18:05:06.119Z,64.27
2022-10-22T18:07:33.930Z,65.61
2022-10-22T18:10:01.971Z,64.98
2022-10-22T18:12:30.152Z,64.57
2022-10-22T18:14:58.011Z,64.42
2022-10-22T18:17:26.389Z,64.56
2022-10-22T18:19:54.522Z,64.16
2022-10-22T18:22:22.540Z,65.89
2022-10-22T18:24:50.709Z,67.78
2022-10-22T18:27:19.000Z,66.36
2022-10-22T18:29:49.212Z,66.00
2022-10-22T18:32:17.794Z,65.54
2022-10-22T18:34:45.770Z,65.40
2022-10-22T18:37:13.844Z,66.23
2022-10-22T18:39:41.763Z,66.12
2022-10-22T18:42:09.634Z,64.64
2022-10-22T18:44:37.750Z,64.05
2022-10-22T18:47:06.330Z,64.98
2022-10-22T18:49:34.813Z,67.27
2022-10-22T18:52:03.005Z,65.32
2022-10-22T18:54:30.763Z,65.37
2022-10-22T18:57:02.938Z,66.66
2022-10-22T18:59:32.150Z,65.83
2022-10-22T19:02:00.437Z,65.58
2022-10-22T19:04:33.608Z,65.94
2022-10-22T19:07:01.397Z,66.35
2022-10-22T19:09:29.430Z,67.55
2022-10-22T19:11:58.422Z,67.22
2022-10-22T19:14:26.292Z,66.68
2022-10-22T19:16:54.460Z,66.85
2022-10-22T19:19:23.075Z,66.37
2022-10-22T19:21:50.906Z,65.68
2022-10-22T19:24:20.206Z,66.10
2022-10-22T19:26:49.007Z,66.41
2022-10-22T19:29:18.196Z,66.62
2022-10-22T19:31:46.163Z,66.90
2022-10-22T19:34:14.482Z,68.79
2022-10-22T19:36:42.517Z,68.48
2022-10-22T19:39:10.383Z,68.58
2022-10-22T19:41:38.352Z,68.51
2022-10-22T19:44:06.173Z,69.01
2022-10-22T19:46:34.080Z,69.32
2022-10-22T19:49:02.882Z,68.46
2022-10-22T19:51:33.778Z,68.56
2022-10-22T19:54:03.223Z,68.18
2022-10-22T19:56:32.283Z,66.57
2022-10-22T19:59:00.153Z,66.29
2022-10-22T20:01:28.265Z,67.07
2022-10-22T20:03:56.256Z,68.26
2022-10-22T20:06:24.390Z,68.40
2022-10-22T20:08:55.408Z,68.77
2022-10-22T20:11:26.117Z,69.80
2022-10-22T20:13:54.860Z,69.47
2022-10-22T20:16:24.414Z,69.63
2022-10-22T20:18:52.966Z,70.32
2022-10-22T20:21:21.021Z,69.73
2022-10-22T20:23:52.189Z,69.39
2022-10-22T20:26:20.684Z,69.47
2022-10-22T20:28:48.610Z,69.22
2022-10-22T20:31:17.604Z,69.89
2022-10-22T20:33:45.881Z,69.24
2022-10-22T20:36:16.001Z,69.44
2022-10-22T20:38:43.979Z,68.77
2022-10-22T20:41:12.862Z,69.58
2022-10-22T20:43:43.087Z,69.98
2022-10-22T20:46:31.029Z,70.05
2022-10-22T20:49:03.726Z,70.43
2022-10-22T20:51:32.088Z,70.68
2022-10-22T20:53:59.956Z,70.74
2022-10-22T20:56:28.541Z,70.94
2022-10-22T20:59:04.805Z,71.77
2022-10-22T21:01:37.589Z,70.76
2022-10-22T21:04:05.632Z,70.80
2022-10-22T21:06:34.310Z,71.18
2022-10-22T21:09:02.277Z,71.31
2022-10-22T21:11:30.480Z,71.03
2022-10-22T21:13:58.661Z,70.85
2022-10-22T21:16:26.521Z,71.55
2022-10-22T21:18:54.601Z,71.75
2022-10-22T21:21:22.529Z,71.87
2022-10-22T21:23:50.643Z,71.87
2022-10-22T21:26:19.330Z,72.09
2022-10-22T21:28:47.498Z,73.32
2022-10-22T21:31:22.095Z,73.05
2022-10-22T21:33:50.513Z,72.93
2022-10-22T21:36:22.428Z,72.59
2022-10-22T21:38:51.976Z,72.53
2022-10-22T21:41:21.585Z,72.57
2022-10-22T21:43:50.039Z,73.77
2022-10-22T21:46:22.740Z,73.53
2022-10-22T21:48:53.884Z,73.09
2022-10-22T21:51:22.571Z,73.04
2022-10-22T21:56:32.695Z,73.71
2022-10-22T21:59:01.563Z,73.34
2022-10-22T22:01:29.531Z,74.43
2022-10-22T22:03:57.704Z,74.55
2022-10-22T22:06:29.566Z,73.99
2022-10-22T22:08:59.121Z,73.90
2022-10-22T22:11:27.946Z,73.84
2022-10-22T22:13:56.519Z,73.83
2022-10-22T22:16:28.353Z,73.96
2022-10-22T22:18:58.488Z,74.11
2022-10-22T22:21:26.368Z,74.12
2022-10-22T22:23:54.342Z,74.61
2022-10-22T22:26:26.744Z,74.41
2022-10-22T22:28:58.454Z,74.93
2022-10-22T22:31:28.594Z,74.77
2022-10-22T22:34:01.686Z,74.33
2022-10-22T22:36:33.664Z,74.98
2022-10-22T22:39:02.130Z,76.79
2022-10-22T22:41:29.840Z,75.98
2022-10-22T22:43:57.692Z,75.37
2022-10-22T22:46:25.724Z,75.88
2022-10-22T22:48:53.589Z,76.53
2022-10-22T22:51:21.668Z,75.92
2022-10-22T22:53:49.642Z,76.33
2022-10-22T22:56:18.740Z,75.78
2022-10-22T22:58:46.537Z,76.03
2022-10-22T23:01:19.080Z,75.64
2022-10-22T23:03:48.379Z,75.70
2022-10-22T23:06:16.251Z,75.58
2022-10-22T23:08:44.465Z,75.48
2022-10-22T23:11:13.776Z,75.44
2022-10-22T23:13:42.406Z,75.49
2022-10-22T23:16:13.133Z,75.48
2022-10-22T23:18:41.110Z,75.70
2022-10-22T23:21:22.935Z,75.72
2022-10-22T23:23:52.209Z,76.67
2022-10-22T23:26:21.498Z,76.59
2022-10-22T23:28:49.571Z,76.77
2022-10-22T23:31:18.470Z,76.97
2022-10-22T23:33:46.829Z,76.33
2022-10-22T23:36:14.657Z,76.63
2022-10-22T23:38:43.600Z,76.10
2022-10-22T23:41:11.570Z,76.12
2022-10-22T23:43:39.546Z,76.50
2022-10-22T23:46:08.334Z,76.89
2022-10-22T23:48:36.920Z,77.79
2022-10-22T23:51:09.291Z,77.13
2022-10-22T23:53:37.252Z,81.59
2022-10-22T23:56:06.764Z,84.44
2022-10-22T23:58:35.355Z,86.68
